Time;durP1;ratioP1;P1;durP2;ratioP2;P2;SDS_P1;SDS_P2;PMS_P1;PMS_P2;Temp;Humidity;BMP_temperature;BMP_pressure;BME280_temperature;BME280_humidity;BME280_pressure;Samples;Min_cycle;Max_cycle;Signal;HPM_P1;HPM_P2
2022/04/17 00:00:14;;;;;;;8.55;6.00;;;6.20;99.90;;;;;;5051096;28;20047;-84
2022/04/17 00:02:41;;;;;;;9.30;5.15;;;6.10;99.90;;;;;;5017729;28;20049;-84
2022/04/17 00:05:08;;;;;;;8.95;6.00;;;6.10;99.90;;;;;;5018546;28;20063;-84
2022/04/17 00:07:35;;;;;;;8.60;5.30;;;6.10;99.90;;;;;;5035500;28;20045;-85
2022/04/17 00:10:01;;;;;;;9.15;5.85;;;6.20;99.90;;;;;;5035337;28;20136;-84
2022/04/17 00:12:27;;;;;;;11.00;6.00;;;6.00;99.90;;;;;;5052607;28;20044;-84
2022/04/17 00:14:57;;;;;;;9.48;6.15;;;5.90;99.90;;;;;;5034419;28;20056;-85
2022/04/17 00:17:23;;;;;;;11.23;6.37;;;6.00;99.90;;;;;;5032896;28;20072;-85
2022/04/17 00:19:49;;;;;;;9.13;5.90;;;5.90;99.90;;;;;;5051013;28;20068;-85
2022/04/17 00:22:15;;;;;;;10.30;5.68;;;6.10;99.90;;;;;;5016167;28;20144;-84
2022/04/17 00:24:42;;;;;;;10.05;6.28;;;5.90;99.90;;;;;;5034241;28;20048;-85
2022/04/17 00:27:09;;;;;;;11.05;6.05;;;5.90;99.90;;;;;;5049612;28;20125;-85
2022/04/17 00:29:35;;;;;;;10.02;6.05;;;5.80;99.90;;;;;;5016744;28;20514;-84
2022/04/17 00:32:01;;;;;;;10.35;5.90;;;5.80;99.90;;;;;;5033333;28;20403;-84
2022/04/17 00:34:29;;;;;;;9.57;6.25;;;5.80;99.90;;;;;;5050088;28;20049;-84
2022/04/17 00:36:59;;;;;;;9.95;6.28;;;5.80;99.90;;;;;;5014510;28;20045;-85
2022/04/17 00:39:25;;;;;;;10.95;6.35;;;5.80;99.90;;;;;;5050010;28;20341;-84
2022/04/17 00:41:53;;;;;;;9.25;6.03;;;5.90;99.90;;;;;;5048915;28;20049;-84
2022/04/17 00:44:19;;;;;;;9.57;6.68;;;5.90;99.90;;;;;;5048698;28;20135;-85
2022/04/17 00:46:45;;;;;;;10.85;6.53;;;6.00;99.90;;;;;;5049946;28;20120;-84
2022/04/17 00:49:11;;;;;;;11.82;6.15;;;6.00;99.90;;;;;;5050000;28;20041;-85
2022/04/17 00:51:37;;;;;;;9.88;6.80;;;6.00;99.90;;;;;;5031809;28;20044;-85
2022/04/17 00:54:06;;;;;;;11.70;6.30;;;6.00;99.90;;;;;;5030235;28;20140;-84
2022/04/17 00:56:32;;;;;;;10.65;6.03;;;6.00;99.90;;;;;;5051589;28;20099;-84
2022/04/17 00:59:00;;;;;;;12.10;6.13;;;6.00;99.90;;;;;;5034748;28;20049;-84
2022/04/17 01:01:32;;;;;;;12.02;6.35;;;5.90;99.90;;;;;;5054273;28;20482;-84
2022/04/17 01:03:58;;;;;;;9.88;6.13;;;5.90;99.90;;;;;;5036381;28;20178;-84
2022/04/17 01:06:23;;;;;;;10.57;6.32;;;5.90;99.90;;;;;;5035910;28;20529;-85
2022/04/17 01:08:49;;;;;;;11.13;6.25;;;5.90;99.90;;;;;;5033100;28;20056;-85
2022/04/17 01:11:16;;;;;;;9.27;6.35;;;5.90;99.90;;;;;;5053459;28;20490;-85
2022/04/17 01:13:43;;;;;;;10.70;6.15;;;5.90;99.90;;;;;;5035381;28;20052;-84
2022/04/17 01:16:10;;;;;;;12.02;5.90;;;5.90;99.90;;;;;;5053091;28;20040;-85
2022/04/17 01:18:55;;;;;;;10.65;6.20;;;5.80;99.90;;;;;;5035697;28;20143;-85
2022/04/17 01:21:22;;;;;;;10.13;5.95;;;5.80;99.90;;;;;;5051155;28;20060;-84
2022/04/17 01:29:17;;;;;;;9.32;5.60;;;5.80;99.90;;;;;;5053441;28;20056;-84
2022/04/17 01:31:43;;;;;;;11.75;6.20;;;5.70;99.90;;;;;;5018722;28;20047;-85
2022/04/17 01:34:09;;;;;;;8.85;5.70;;;5.80;99.90;;;;;;5019624;28;20131;-85
2022/04/17 01:36:34;;;;;;;10.35;6.38;;;5.80;99.90;;;;;;5018517;28;20095;-85
2022/04/17 01:39:00;;;;;;;12.98;6.05;;;5.80;99.90;;;;;;5042483;28;20056;-84
2022/04/17 01:41:25;;;;;;;10.40;6.35;;;5.80;99.90;;;;;;5052092;28;20053;-85
2022/04/17 01:43:51;;;;;;;9.95;6.47;;;5.80;99.90;;;;;;5052092;28;20036;-84
2022/04/17 01:46:17;;;;;;;9.93;6.10;;;5.70;99.90;;;;;;5037270;28;20052;-85
2022/04/17 01:48:43;;;;;;;11.07;6.10;;;5.70;99.90;;;;;;5035508;28;20479;-84
2022/04/17 01:51:08;;;;;;;11.02;6.45;;;5.70;99.90;;;;;;5035257;28;20045;-84
2022/04/17 01:53:34;;;;;;;10.60;6.07;;;5.60;99.90;;;;;;5052304;28;20124;-84
2022/04/17 01:56:00;;;;;;;11.52;6.55;;;5.60;99.90;;;;;;5032192;28;20083;-84
2022/04/17 01:58:26;;;;;;;10.07;6.03;;;5.60;99.90;;;;;;5052964;28;20049;-84
2022/04/17 02:00:51;;;;;;;11.77;6.35;;;5.60;99.90;;;;;;5026397;28;20036;-84
2022/04/17 02:03:17;;;;;;;12.20;7.07;;;5.60;99.90;;;;;;5052902;28;20049;-85
2022/04/17 02:05:42;;;;;;;9.45;5.90;;;5.50;99.90;;;;;;5052240;28;20441;-85
2022/04/17 02:08:08;;;;;;;9.82;6.35;;;5.50;99.90;;;;;;5051286;28;20064;-85
2022/04/17 02:10:34;;;;;;;9.98;6.05;;;5.40;99.90;;;;;;5052479;28;20095;-84
2022/04/17 02:13:00;;;;;;;14.88;6.38;;;5.40;99.90;;;;;;5034592;28;20048;-84
2022/04/17 02:15:26;;;;;;;10.95;6.25;;;5.40;99.90;;;;;;5050764;28;20052;-85
2022/04/17 02:17:52;;;;;;;10.15;6.30;;;5.30;99.90;;;;;;5052244;28;20120;-84
2022/04/17 02:20:19;;;;;;;10.00;6.47;;;5.30;99.90;;;;;;5052566;28;20040;-84
2022/04/17 02:22:45;;;;;;;10.75;6.63;;;5.30;99.90;;;;;;5034440;28;20407;-84
2022/04/17 02:25:11;;;;;;;12.93;6.30;;;5.20;99.90;;;;;;5017520;28;20049;-84
2022/04/17 02:27:37;;;;;;;11.70;6.80;;;5.30;99.90;;;;;;5051663;28;20041;-85
2022/04/17 02:30:04;;;;;;;12.35;6.50;;;5.20;99.90;;;;;;5053189;28;20052;-84
2022/04/17 02:32:30;;;;;;;11.07;6.53;;;5.20;99.90;;;;;;5034512;28;20422;-84
2022/04/17 02:34:56;;;;;;;10.57;6.85;;;5.20;99.90;;;;;;5042813;28;20063;-86
2022/04/17 02:37:21;;;;;;;11.52;6.60;;;5.20;99.90;;;;;;5049560;28;20045;-85
2022/04/17 02:39:48;;;;;;;9.55;6.45;;;5.10;99.90;;;;;;5034533;28;20511;-84
2022/04/17 02:42:13;;;;;;;11.73;6.78;;;5.10;99.90;;;;;;5017453;28;20052;-85
2022/04/17 02:44:39;;;;;;;9.80;6.22;;;5.20;99.90;;;;;;5034911;28;20041;-85
2022/04/17 02:49:49;;;;;;;10.55;6.47;;;5.10;99.90;;;;;;5051643;28;20605;-85
2022/04/17 02:52:14;;;;;;;11.48;6.80;;;5.10;99.90;;;;;;5016882;28;20128;-85
2022/04/17 02:54:41;;;;;;;11.25;6.50;;;5.20;99.90;;;;;;5033404;28;20426;-84
2022/04/17 02:57:07;;;;;;;9.73;6.07;;;5.20;99.90;;;;;;5050474;28;20056;-85
2022/04/17 02:59:33;;;;;;;13.38;6.30;;;5.20;99.90;;;;;;5033849;28;20049;-85
2022/04/17 03:07:29;;;;;;;10.40;6.43;;;5.10;99.90;;;;;;5049871;28;20402;-84
2022/04/17 03:09:54;;;;;;;12.68;6.60;;;5.10;99.90;;;;;;5050722;28;20055;-84
2022/04/17 03:12:20;;;;;;;10.93;6.20;;;5.00;99.90;;;;;;5033238;28;20045;-84
2022/04/17 03:14:46;;;;;;;12.82;6.30;;;5.00;99.90;;;;;;5032261;28;20486;-84
2022/04/17 03:17:12;;;;;;;10.32;6.45;;;4.90;99.90;;;;;;5050250;28;20053;-84
2022/04/17 03:19:38;;;;;;;11.95;7.25;;;5.00;99.90;;;;;;5049980;28;20045;-84
2022/04/17 03:22:04;;;;;;;10.57;6.90;;;4.80;99.90;;;;;;5032890;28;20541;-85
2022/04/17 03:24:31;;;;;;;11.70;6.60;;;4.80;99.90;;;;;;5033124;28;20060;-84
2022/04/17 03:26:57;;;;;;;11.15;7.00;;;4.80;99.90;;;;;;5016701;28;20064;-84
2022/04/17 03:29:23;;;;;;;10.43;6.97;;;4.70;99.90;;;;;;5015687;28;20503;-84
2022/04/17 03:31:49;;;;;;;9.75;7.13;;;4.70;99.90;;;;;;5050512;28;20056;-84
2022/04/17 03:34:14;;;;;;;9.98;5.75;;;4.60;99.90;;;;;;5016887;28;20063;-84
2022/04/17 03:36:40;;;;;;;12.30;6.28;;;4.60;99.90;;;;;;5050845;28;20131;-84
2022/04/17 03:39:06;;;;;;;12.95;6.47;;;4.40;99.90;;;;;;5033067;28;20076;-84
2022/04/17 03:41:32;;;;;;;11.32;6.47;;;4.40;99.90;;;;;;5050159;28;20041;-84
2022/04/17 03:43:58;;;;;;;13.48;7.50;;;4.30;99.90;;;;;;5050751;28;20525;-84
2022/04/17 03:46:23;;;;;;;10.65;7.18;;;4.30;99.90;;;;;;5030920;28;20461;-83
2022/04/17 03:48:49;;;;;;;15.48;6.85;;;4.20;99.90;;;;;;5032993;28;20037;-84
2022/04/17 03:51:15;;;;;;;9.52;6.93;;;4.20;99.90;;;;;;5033259;28;20092;-84
2022/04/17 03:53:42;;;;;;;11.75;6.78;;;4.00;99.90;;;;;;5032632;28;20045;-84
2022/04/17 03:56:07;;;;;;;13.93;7.45;;;3.90;99.90;;;;;;5010297;28;20037;-84
2022/04/17 03:58:33;;;;;;;11.00;7.50;;;3.90;99.90;;;;;;5051065;28;20053;-84
2022/04/17 04:00:59;;;;;;;10.95;7.38;;;3.80;99.90;;;;;;5033035;28;20124;-83
2022/04/17 04:03:28;;;;;;;11.90;6.32;;;3.80;99.90;;;;;;5033055;28;20384;-84
2022/04/17 04:05:55;;;;;;;13.18;7.47;;;3.70;99.90;;;;;;5049896;28;20051;-84
2022/04/17 04:08:21;;;;;;;13.25;8.00;;;3.60;99.90;;;;;;5031853;28;20088;-84
2022/04/17 04:10:46;;;;;;;13.00;7.53;;;3.50;99.90;;;;;;5050456;28;20075;-84
2022/04/17 04:13:12;;;;;;;12.50;7.28;;;3.40;99.90;;;;;;5032623;28;20099;-83
2022/04/17 04:15:38;;;;;;;11.55;7.43;;;3.30;99.90;;;;;;5049881;28;20045;-85
2022/04/17 04:18:04;;;;;;;13.10;7.57;;;3.40;99.90;;;;;;5038783;28;20475;-84
2022/04/17 04:20:29;;;;;;;14.30;8.27;;;3.20;99.90;;;;;;5032541;28;20056;-84
2022/04/17 04:22:56;;;;;;;13.93;8.25;;;3.20;99.90;;;;;;5039710;28;20534;-84
2022/04/17 04:25:22;;;;;;;13.75;7.85;;;3.10;99.90;;;;;;5049491;28;20048;-84
2022/04/17 04:30:31;;;;;;;12.23;7.63;;;3.20;99.90;;;;;;5026751;28;20047;-85
2022/04/17 04:32:57;;;;;;;13.75;8.05;;;3.10;99.90;;;;;;5054263;28;20041;-84
2022/04/17 04:35:26;;;;;;;14.98;7.47;;;3.20;99.90;;;;;;5054269;28;20041;-84
2022/04/17 04:37:52;;;;;;;11.30;7.72;;;3.20;99.90;;;;;;5035935;28;20052;-84
2022/04/17 04:40:18;;;;;;;14.82;7.95;;;3.20;99.90;;;;;;5036347;28;20115;-84
2022/04/17 04:42:44;;;;;;;11.77;7.82;;;3.20;99.90;;;;;;5052681;28;20474;-84
2022/04/17 04:47:55;;;;;;;16.73;7.93;;;3.10;99.90;;;;;;5052197;28;20049;-84
2022/04/17 04:50:20;;;;;;;12.70;8.70;;;3.10;99.90;;;;;;5035375;28;20076;-86
2022/04/17 04:52:46;;;;;;;13.70;7.88;;;3.10;99.90;;;;;;5036117;28;20123;-84
2022/04/17 04:55:12;;;;;;;13.15;8.20;;;3.10;99.90;;;;;;5036390;28;20103;-84
2022/04/17 04:57:38;;;;;;;13.10;7.65;;;3.00;99.90;;;;;;5053905;28;20057;-84
2022/04/17 05:00:08;;;;;;;11.65;7.65;;;3.10;99.90;;;;;;5035556;28;20045;-84
2022/04/17 05:02:40;;;;;;;11.90;7.57;;;3.10;99.90;;;;;;5035835;28;20052;-84
2022/04/17 05:05:07;;;;;;;12.07;7.75;;;3.10;99.90;;;;;;5052203;28;20048;-85
2022/04/17 05:07:33;;;;;;;11.75;7.55;;;3.10;99.90;;;;;;5051963;28;20053;-84
2022/04/17 05:10:00;;;;;;;11.13;8.02;;;3.10;99.90;;;;;;5036391;28;20088;-84
2022/04/17 05:12:27;;;;;;;14.23;7.97;;;3.20;99.90;;;;;;5018624;28;20100;-84
2022/04/17 05:14:53;;;;;;;12.50;7.90;;;3.20;99.90;;;;;;5036324;28;20052;-84
2022/04/17 05:17:19;;;;;;;12.00;7.90;;;3.30;99.90;;;;;;5043830;28;20048;-84
2022/04/17 05:19:45;;;;;;;12.32;8.13;;;3.40;99.90;;;;;;5053411;28;20406;-85
2022/04/17 05:22:15;;;;;;;15.98;8.65;;;3.40;99.90;;;;;;5019397;28;20103;-84
2022/04/17 05:24:42;;;;;;;12.35;7.63;;;3.40;99.90;;;;;;5033780;28;20044;-85
2022/04/17 05:27:08;;;;;;;14.68;7.80;;;3.50;99.90;;;;;;5051968;28;20041;-84
2022/04/17 05:29:34;;;;;;;13.15;7.97;;;3.80;99.90;;;;;;5053427;28;20041;-84
2022/04/17 05:32:02;;;;;;;17.80;7.88;;;3.60;99.90;;;;;;5035347;28;20048;-85
2022/04/17 05:34:28;;;;;;;15.25;7.65;;;3.70;99.90;;;;;;5035059;28;20057;-84
2022/04/17 05:36:54;;;;;;;12.75;7.63;;;3.80;99.90;;;;;;5019270;28;20045;-84
2022/04/17 05:39:19;;;;;;;15.15;7.78;;;3.90;99.90;;;;;;5052929;28;20509;-84
2022/04/17 05:41:46;;;;;;;13.73;8.18;;;4.00;99.90;;;;;;5052557;28;20091;-85
2022/04/17 05:44:12;;;;;;;12.85;7.65;;;4.10;99.90;;;;;;5032211;28;20064;-84
2022/04/17 05:46:41;;;;;;;13.82;7.55;;;4.10;99.90;;;;;;5035338;28;20093;-85
2022/04/17 05:49:07;;;;;;;16.65;8.32;;;4.20;99.90;;;;;;5018537;28;20487;-84
2022/04/17 05:51:34;;;;;;;14.35;7.93;;;4.30;99.90;;;;;;5034932;28;20049;-85
2022/04/17 05:54:01;;;;;;;12.25;7.65;;;4.40;99.90;;;;;;5034006;28;20445;-84
2022/04/17 05:56:27;;;;;;;11.90;7.45;;;4.50;99.90;;;;;;5052790;28;20041;-84
2022/04/17 05:58:53;;;;;;;11.30;7.38;;;4.50;99.90;;;;;;5015438;28;20049;-84
2022/04/17 06:01:18;;;;;;;14.90;8.57;;;4.60;99.90;;;;;;5032334;28;20047;-84
2022/04/17 06:03:44;;;;;;;12.77;7.82;;;4.70;99.90;;;;;;5051314;28;20148;-85
2022/04/17 06:06:10;;;;;;;12.95;7.82;;;4.80;99.90;;;;;;5052792;28;20111;-85
2022/04/17 06:08:36;;;;;;;12.45;8.10;;;4.90;99.90;;;;;;5034445;28;20430;-84
2022/04/17 06:11:02;;;;;;;10.73;7.25;;;5.00;99.90;;;;;;5053666;28;20052;-85
2022/04/17 06:13:27;;;;;;;11.80;7.25;;;5.10;99.90;;;;;;5052305;28;20421;-85
2022/04/17 06:15:53;;;;;;;14.02;8.32;;;5.30;99.90;;;;;;5036585;28;20124;-84
2022/04/17 06:18:19;;;;;;;9.82;7.22;;;5.40;99.90;;;;;;5052813;28;20144;-85
2022/04/17 06:20:44;;;;;;;11.98;7.07;;;5.50;99.90;;;;;;5053760;28;20483;-85
2022/04/17 06:23:10;;;;;;;11.02;7.15;;;5.70;99.90;;;;;;5036571;28;20052;-85
2022/04/17 06:25:36;;;;;;;12.60;7.13;;;5.80;99.90;;;;;;5035930;28;20044;-85
2022/04/17 06:28:01;;;;;;;15.50;7.22;;;6.00;99.90;;;;;;5039936;28;20041;-84
2022/04/17 06:30:27;;;;;;;13.38;7.28;;;6.10;99.90;;;;;;5053862;28;20187;-84
2022/04/17 06:32:53;;;;;;;12.73;6.78;;;6.30;99.90;;;;;;5053634;28;20048;-84
2022/04/17 06:35:19;;;;;;;10.85;6.82;;;6.40;99.90;;;;;;5035875;28;20041;-85
2022/04/17 06:37:47;;;;;;;12.77;7.13;;;6.70;99.90;;;;;;5058642;28;20045;-85
2022/04/17 06:40:23;;;;;;;12.40;7.00;;;6.70;99.90;;;;;;5060620;28;20057;-84
2022/04/17 06:42:51;;;;;;;10.80;6.60;;;6.80;99.90;;;;;;5057145;28;20080;-85
2022/04/17 06:45:18;;;;;;;10.63;6.63;;;7.00;99.90;;;;;;5046639;28;20114;-84
2022/04/17 06:47:44;;;;;;;12.27;6.78;;;7.10;99.90;;;;;;5045175;28;20044;-84
2022/04/17 06:50:11;;;;;;;9.52;6.60;;;7.30;99.90;;;;;;5023973;28;20052;-86
2022/04/17 06:52:37;;;;;;;11.00;6.47;;;7.40;99.90;;;;;;5053488;28;20041;-85
2022/04/17 06:55:04;;;;;;;11.48;6.68;;;7.50;99.90;;;;;;5047223;28;20056;-85
2022/04/17 06:57:33;;;;;;;10.75;6.85;;;7.60;99.90;;;;;;5052088;28;20095;-84
2022/04/17 07:00:09;;;;;;;11.93;6.40;;;7.70;99.90;;;;;;5052261;28;20049;-84
2022/04/17 07:02:38;;;;;;;10.10;6.55;;;7.90;99.90;;;;;;5052502;28;20047;-85
2022/04/17 07:05:05;;;;;;;9.63;6.40;;;8.00;99.90;;;;;;5019493;28;20053;-84
2022/04/17 07:07:31;;;;;;;9.93;6.03;;;8.10;99.90;;;;;;5019223;28;20143;-85
2022/04/17 07:09:57;;;;;;;10.65;6.18;;;8.20;99.90;;;;;;5053382;28;20056;-85
2022/04/17 07:12:23;;;;;;;10.00;5.90;;;8.30;99.90;;;;;;5035770;28;20135;-84
2022/04/17 07:14:49;;;;;;;11.55;6.50;;;8.50;99.90;;;;;;5051979;28;20057;-85
2022/04/17 07:17:15;;;;;;;12.60;6.70;;;8.50;99.90;;;;;;5035313;28;20071;-85
2022/04/17 07:19:41;;;;;;;7.93;5.40;;;8.60;99.90;;;;;;5053201;28;20052;-85
2022/04/17 07:22:06;;;;;;;9.70;5.95;;;8.70;99.90;;;;;;5035778;28;20057;-85
2022/04/17 07:24:32;;;;;;;9.48;5.93;;;8.80;99.80;;;;;;5018644;28;20056;-85
2022/04/17 07:26:58;;;;;;;11.88;6.35;;;8.90;99.50;;;;;;5018474;28;20053;-85
2022/04/17 07:29:24;;;;;;;9.13;6.20;;;9.10;98.40;;;;;;5051892;28;20095;-85
2022/04/17 07:31:51;;;;;;;8.68;5.57;;;9.10;97.00;;;;;;5035330;28;20501;-85
2022/04/17 07:34:18;;;;;;;9.90;6.13;;;9.20;96.40;;;;;;5051717;28;20403;-85
2022/04/17 07:36:44;;;;;;;10.02;5.90;;;9.50;95.60;;;;;;5035170;28;20575;-85
2022/04/17 07:39:10;;;;;;;8.45;5.60;;;9.70;94.60;;;;;;5051865;28;20134;-86
2022/04/17 07:41:36;;;;;;;7.95;5.63;;;9.50;93.30;;;;;;5052185;28;20072;-85
2022/04/17 07:44:01;;;;;;;9.93;6.10;;;9.70;94.10;;;;;;5018736;28;20371;-85
2022/04/17 07:46:27;;;;;;;10.50;6.20;;;9.70;92.90;;;;;;5035394;28;20059;-85
2022/04/17 07:48:53;;;;;;;9.50;5.78;;;9.90;92.30;;;;;;5019257;28;20049;-85
2022/04/17 07:51:18;;;;;;;11.23;5.68;;;10.00;92.30;;;;;;5018404;28;20056;-85
2022/04/17 07:53:44;;;;;;;7.70;5.32;;;10.20;91.90;;;;;;5052594;28;20045;-86
2022/04/17 07:56:11;;;;;;;9.63;5.38;;;10.30;90.30;;;;;;5021124;28;20052;-86
2022/04/17 07:58:38;;;;;;;8.27;5.32;;;10.60;88.50;;;;;;5053156;28;20045;-86
2022/04/17 08:01:11;;;;;;;10.98;6.10;;;10.50;87.60;;;;;;5035892;28;20041;-85
2022/04/17 08:03:46;;;;;;;9.90;5.85;;;10.50;86.00;;;;;;5036005;28;20049;-86
2022/04/17 08:06:15;;;;;;;9.80;5.50;;;10.90;83.90;;;;;;5052493;28;20052;-86
2022/04/17 08:08:42;;;;;;;9.85;5.70;;;11.40;79.10;;;;;;5052795;28;20061;-85
2022/04/17 08:11:09;;;;;;;8.38;4.72;;;11.70;76.40;;;;;;5035834;28;20107;-85
2022/04/17 08:13:36;;;;;;;8.70;5.53;;;11.80;74.40;;;;;;5053261;28;20441;-87
2022/04/17 08:16:04;;;;;;;7.63;5.00;;;11.90;75.70;;;;;;5018448;28;20041;-86
2022/04/17 08:18:31;;;;;;;12.05;5.72;;;11.90;75.70;;;;;;5019666;28;20511;-86
2022/04/17 08:20:57;;;;;;;8.63;5.63;;;11.90;76.00;;;;;;5019487;28;20080;-87
2022/04/17 08:23:22;;;;;;;7.72;5.70;;;12.00;79.40;;;;;;5052425;28;20045;-86
2022/04/17 08:25:48;;;;;;;8.85;5.47;;;12.20;81.60;;;;;;5052204;28;20545;-86
2022/04/17 08:28:14;;;;;;;6.50;4.93;;;12.50;82.00;;;;;;5052213;28;20122;-86
2022/04/17 08:30:40;;;;;;;7.30;5.00;;;13.40;72.00;;;;;;5034973;28;20080;-86
2022/04/17 08:33:07;;;;;;;7.90;5.28;;;14.70;65.30;;;;;;5033780;28;20052;-87
2022/04/17 08:35:33;;;;;;;9.20;4.75;;;15.90;60.60;;;;;;5051580;28;20490;-87
2022/04/17 08:38:00;;;;;;;7.68;4.95;;;17.00;57.00;;;;;;5018118;28;20064;-87
2022/04/17 08:40:26;;;;;;;6.90;4.80;;;17.70;54.10;;;;;;5017971;28;20084;-88
2022/04/17 08:42:58;;;;;;;7.20;4.40;;;18.30;52.00;;;;;;5018030;28;20037;-88
2022/04/17 08:45:25;;;;;;;7.93;5.07;;;19.00;51.20;;;;;;5017761;28;20048;-87
2022/04/17 08:47:51;;;;;;;7.32;5.30;;;19.80;48.90;;;;;;5052236;28;20402;-87
2022/04/17 08:50:19;;;;;;;7.93;4.85;;;20.30;47.20;;;;;;5050978;28;20049;-87
2022/04/17 08:52:47;;;;;;;7.28;5.03;;;20.60;45.90;;;;;;5051191;28;20045;-85
2022/04/17 08:55:13;;;;;;;8.30;5.25;;;20.80;44.70;;;;;;5050854;28;20041;-87
2022/04/17 08:57:39;;;;;;;7.28;4.55;;;20.70;44.10;;;;;;5018101;28;20049;-87
2022/04/17 09:00:08;;;;;;;7.57;5.05;;;21.00;45.00;;;;;;5051923;28;20084;-88
2022/04/17 09:02:35;;;;;;;6.18;4.80;;;21.50;44.10;;;;;;5051828;28;20045;-87
2022/04/17 09:05:09;;;;;;;7.78;5.15;;;22.20;42.70;;;;;;5052113;28;20049;-87
2022/04/17 09:07:43;;;;;;;6.45;4.90;;;22.60;41.40;;;;;;5050732;28;20060;-87
2022/04/17 09:10:09;;;;;;;9.68;5.30;;;22.90;40.80;;;;;;5034121;28;20057;-86
2022/04/17 09:12:35;;;;;;;6.00;4.60;;;23.00;40.20;;;;;;5034029;28;20068;-87
2022/04/17 09:15:04;;;;;;;6.55;4.93;;;23.20;40.90;;;;;;5051945;28;20479;-87
2022/04/17 09:17:31;;;;;;;9.98;4.72;;;23.20;40.00;;;;;;5036916;28;20140;-87
2022/04/17 09:19:56;;;;;;;7.15;4.47;;;23.30;40.00;;;;;;5054565;28;20465;-87
2022/04/17 09:22:22;;;;;;;6.05;4.40;;;23.70;39.50;;;;;;5021493;28;20080;-87
2022/04/17 09:24:48;;;;;;;7.25;4.53;;;23.90;37.60;;;;;;5054343;28;20041;-87
2022/04/17 09:27:13;;;;;;;6.63;3.90;;;24.00;37.10;;;;;;5021044;28;20060;-88
2022/04/17 09:29:39;;;;;;;5.25;4.05;;;24.00;36.70;;;;;;5055057;28;20120;-86
2022/04/17 09:32:06;;;;;;;5.85;3.90;;;24.10;36.90;;;;;;5037452;28;20103;-87
2022/04/17 09:34:50;;;;;;;8.25;3.83;;;24.10;35.90;;;;;;5037579;28;20088;-87
2022/04/17 09:37:20;;;;;;;5.03;4.00;;;24.20;34.90;;;;;;5054263;28;20044;-87
2022/04/17 09:39:47;;;;;;;;;;;24.10;35.20;;;;;;5055531;28;20037;-88
2022/04/17 09:42:19;;;;;;;5.93;4.28;;;24.30;34.90;;;;;;5037450;28;19921;-88
2022/04/17 09:44:46;;;;;;;4.50;3.63;;;24.20;35.70;;;;;;5036730;28;20060;-88
2022/04/17 09:47:32;;;;;;;6.75;3.85;;;24.20;35.20;;;;;;5054494;28;20103;-88
2022/04/17 09:50:06;;;;;;;7.00;4.25;;;24.40;34.60;;;;;;5037209;28;20143;-86
2022/04/17 09:52:46;;;;;;;4.50;3.85;;;24.60;34.40;;;;;;5056862;28;20045;-88
2022/04/17 09:55:12;;;;;;;5.00;3.58;;;24.50;33.80;;;;;;5056355;28;20080;-87
2022/04/17 09:57:40;;;;;;;5.28;3.85;;;24.60;33.90;;;;;;5054291;28;20052;-87
2022/04/17 10:00:19;;;;;;;4.88;3.75;;;24.70;34.00;;;;;;5053943;28;20045;-87
2022/04/17 10:02:48;;;;;;;6.07;3.30;;;25.00;34.10;;;;;;5053791;28;20049;-87
2022/04/17 10:05:15;;;;;;;7.40;3.88;;;24.80;33.20;;;;;;5053690;28;20092;-88
2022/04/17 10:07:43;;;;;;;5.82;3.60;;;24.60;33.20;;;;;;5019724;28;20056;-88
2022/04/17 10:10:11;;;;;;;5.20;3.83;;;24.80;33.40;;;;;;5054863;28;20049;-88
2022/04/17 10:12:39;;;;;;;5.03;3.60;;;24.90;33.50;;;;;;5036940;28;20053;-86
2022/04/17 10:15:07;;;;;;;4.78;3.88;;;25.00;33.30;;;;;;5036696;28;20053;-88
2022/04/17 10:17:33;;;;;;;5.75;3.47;;;25.30;32.70;;;;;;5054546;28;20049;-87
2022/04/17 10:20:06;;;;;;;4.88;3.45;;;25.40;33.70;;;;;;5036353;28;20127;-88
2022/04/17 10:22:37;;;;;;;7.13;3.70;;;25.30;32.40;;;;;;5020604;28;20513;-88
2022/04/17 10:25:05;;;;;;;6.03;3.47;;;25.40;32.50;;;;;;5019843;28;20106;-87
2022/04/17 10:27:36;;;;;;;4.15;3.50;;;25.40;32.10;;;;;;5019665;28;20063;-87
2022/04/17 10:30:08;;;;;;;5.18;3.47;;;25.50;32.20;;;;;;5052876;28;20053;-87
2022/04/17 10:32:46;;;;;;;5.25;3.60;;;25.80;32.40;;;;;;5036244;28;20052;-89
2022/04/17 10:35:39;;;;;;;5.38;3.33;;;26.30;32.10;;;;;;5036289;28;20053;-88
2022/04/17 10:38:17;;;;;;;5.93;3.58;;;26.50;30.30;;;;;;5019862;28;20053;-84
2022/04/17 10:41:09;;;;;;;6.35;3.70;;;26.30;31.70;;;;;;5052868;28;20048;-84
2022/04/17 10:43:47;;;;;;;4.53;3.58;;;26.40;30.90;;;;;;5032069;28;20052;-85
2022/04/17 10:46:17;;;;;;;5.75;3.83;;;26.50;31.60;;;;;;5052770;28;20502;-86
2022/04/17 10:49:01;;;;;;;5.00;3.90;;;26.40;31.30;;;;;;5019991;28;20045;-85
2022/04/17 10:51:30;;;;;;;5.22;4.00;;;26.60;31.10;;;;;;5052566;28;20044;-86
2022/04/17 10:54:04;;;;;;;4.95;3.97;;;26.70;30.90;;;;;;5053840;28;20437;-86
2022/04/17 10:56:35;;;;;;;5.80;4.40;;;26.70;31.70;;;;;;5052606;28;20077;-85
2022/04/17 10:59:05;;;;;;;4.78;3.92;;;27.00;31.60;;;;;;5035999;28;20061;-88
2022/04/17 11:01:43;;;;;;;4.30;3.67;;;27.30;31.40;;;;;;5035618;28;20084;-88
2022/04/17 11:04:16;;;;;;;5.10;3.58;;;27.60;30.30;;;;;;5034380;28;20048;-88
2022/04/17 11:06:42;;;;;;;5.50;3.80;;;27.30;29.80;;;;;;5035983;28;20056;-89
2022/04/17 11:09:21;;;;;;;4.05;3.60;;;26.90;30.50;;;;;;5034923;28;20056;-87
2022/04/17 11:11:47;;;;;;;4.75;3.78;;;27.00;30.00;;;;;;5035215;28;20072;-89
2022/04/17 11:14:26;;;;;;;4.72;3.47;;;27.10;30.20;;;;;;5052310;28;20044;-89
2022/04/17 11:16:53;;;;;;;4.72;3.75;;;27.30;31.10;;;;;;5019065;28;20044;-87
2022/04/17 11:19:24;;;;;;;4.40;3.65;;;27.60;30.80;;;;;;5019128;28;20103;-87
2022/04/17 11:21:51;;;;;;;4.90;3.85;;;27.60;29.90;;;;;;5035275;28;20131;-87
2022/04/17 11:24:19;;;;;;;5.22;3.60;;;27.30;29.80;;;;;;5019167;28;20049;-90
2022/04/17 11:26:52;;;;;;;5.32;3.47;;;27.10;29.60;;;;;;5051693;28;20057;-88
2022/04/17 11:29:37;;;;;;;5.07;3.63;;;27.10;30.00;;;;;;5051808;28;20045;-87
2022/04/17 11:32:18;;;;;;;4.68;3.83;;;27.20;30.00;;;;;;5018655;28;20140;-90
2022/04/17 11:34:54;;;;;;;5.95;3.92;;;27.30;30.00;;;;;;5010456;28;20454;-89
2022/04/17 11:37:20;;;;;;;4.60;3.70;;;27.60;30.20;;;;;;5034923;28;20080;-90
2022/04/17 11:39:46;;;;;;;5.97;4.13;;;27.60;30.80;;;;;;5034563;28;20067;-88
2022/04/17 11:42:12;;;;;;;5.72;3.88;;;27.90;29.90;;;;;;5052772;28;20120;-88
2022/04/17 11:44:42;;;;;;;7.05;3.80;;;28.00;29.60;;;;;;5018441;28;20120;-89
2022/04/17 11:47:21;;;;;;;4.93;4.05;;;28.10;29.90;;;;;;5018966;28;20049;-87
2022/04/17 11:49:48;;;;;;;5.82;3.97;;;28.40;29.40;;;;;;5018096;28;20067;-87
2022/04/17 11:52:20;;;;;;;5.40;3.85;;;28.30;29.70;;;;;;5051067;28;20056;-90
2022/04/17 11:54:48;;;;;;;4.25;3.85;;;28.30;29.70;;;;;;5018159;28;20060;-88
2022/04/17 11:57:18;;;;;;;4.45;3.38;;;28.60;29.30;;;;;;5051031;28;20060;-89
2022/04/17 11:59:44;;;;;;;;;;;28.70;30.20;;;;;;5035365;28;20053;-89
2022/04/17 12:02:16;;;;;;;3.83;3.25;;;29.30;30.30;;;;;;5051365;28;20132;-89
2022/04/17 12:04:46;;;;;;;4.00;3.60;;;29.40;29.40;;;;;;5051123;28;20056;-88
2022/04/17 12:07:14;;;;;;;5.85;4.20;;;29.50;28.70;;;;;;5017877;28;20056;-88
2022/04/17 12:09:40;;;;;;;6.18;4.03;;;29.50;29.10;;;;;;5018631;28;20055;-88
2022/04/17 12:12:16;;;;;;;5.13;3.35;;;29.40;28.90;;;;;;5032237;28;20076;-88
2022/04/17 12:14:43;;;;;;;5.20;3.20;;;29.30;28.80;;;;;;5018120;28;20045;-90
2022/04/17 12:17:09;;;;;;;4.50;3.05;;;29.10;28.90;;;;;;5034582;28;20049;-91
2022/04/17 12:19:35;;;;;;;4.10;2.80;;;29.30;28.70;;;;;;5017949;28;20466;-90
2022/04/17 12:22:14;;;;;;;4.97;3.30;;;29.50;28.20;;;;;;5017601;28;20124;-89
2022/04/17 12:24:43;;;;;;;4.10;3.40;;;29.50;27.60;;;;;;5018283;28;20049;-89
2022/04/17 12:27:10;;;;;;;3.75;2.90;;;29.30;28.20;;;;;;5033584;28;20044;-89
2022/04/17 12:29:41;;;;;;;6.15;3.22;;;29.50;27.80;;;;;;5017272;28;20469;-89
2022/04/17 12:32:16;;;;;;;;;;;29.40;27.00;;;;;;5017654;28;20510;-89
2022/04/17 12:34:46;;;;;;;4.57;3.30;;;29.40;27.90;;;;;;5034382;28;20404;-91
2022/04/17 12:37:41;;;;;;;6.30;3.75;;;29.30;28.20;;;;;;5017655;28;20049;-89
2022/04/17 12:40:08;;;;;;;5.25;3.40;;;29.90;28.10;;;;;;4920543;29;20063;-90
2022/04/17 12:42:34;;;;;;;5.55;3.58;;;30.20;27.30;;;;;;4919769;29;20960;-89
2022/04/17 12:45:00;;;;;;;5.47;3.63;;;30.20;27.00;;;;;;4919947;29;20096;-88
2022/04/17 12:47:28;;;;;;;3.90;3.50;;;30.00;26.80;;;;;;4951660;29;20501;-89
2022/04/17 12:50:04;;;;;;;4.38;3.30;;;29.80;26.80;;;;;;4935969;28;20473;-90
2022/04/17 12:52:30;;;;;;;4.78;3.55;;;29.80;27.00;;;;;;4954359;28;20766;-88
2022/04/17 12:55:10;;;;;;;4.05;3.55;;;30.00;27.10;;;;;;4939020;28;20055;-88
2022/04/17 12:57:37;;;;;;;4.85;3.15;;;30.30;26.60;;;;;;4939483;29;20474;-89
2022/04/17 13:00:15;;;;;;;3.92;3.15;;;30.20;27.10;;;;;;4939091;29;20087;-89
2022/04/17 13:02:42;;;;;;;5.00;3.13;;;30.20;26.70;;;;;;4955294;29;20051;-91
2022/04/17 13:05:08;;;;;;;3.88;3.13;;;29.90;27.10;;;;;;4923503;29;20506;-91
2022/04/17 13:07:37;;;;;;;3.80;2.90;;;29.70;27.30;;;;;;4925048;28;20070;-90
2022/04/17 13:10:06;;;;;;;3.80;3.00;;;29.50;27.10;;;;;;4958304;28;20590;-90